Time;durP1;ratioP1;P1;durP2;ratioP2;P2;SDS_P1;SDS_P2;PMS_P1;PMS_P2;Temp;Humidity;BMP_temperature;BMP_pressure;BME280_temperature;BME280_humidity;BME280_pressure;Samples;Min_cycle;Max_cycle;Signal;HPM_P1;HPM_P2
2022/04/24 00:00:47;;;;;;;;;;;;;;;18.46;61.33;97791.16;2084277;28;20059;-46
2022/04/24 00:01:49;;;;;;;;;;;;;;;18.47;61.47;97781.22;2086238;28;19938;-47
2022/04/24 00:02:50;;;;;;;;;;;;;;;18.47;61.30;97779.41;2088474;28;19929;-45
2022/04/24 00:03:52;;;;;;;;;;;;;;;18.47;61.46;97781.22;2082738;28;20577;-46
2022/04/24 00:04:53;;;;;;;;;;;;;;;18.46;61.43;97779.59;2085278;28;20268;-45
2022/04/24 00:05:54;;;;;;;;;;;;;;;18.44;61.31;97777.16;2089390;28;19931;-45
2022/04/24 00:06:55;;;;;;;;;;;;;;;18.45;61.49;97772.59;2084883;28;20390;-46
2022/04/24 00:07:57;;;;;;;;;;;;;;;18.43;61.30;97775.50;2090295;28;19924;-48
2022/04/24 00:08:57;;;;;;;;;;;;;;;18.44;61.41;97774.47;2089919;28;20014;-48
2022/04/24 00:09:59;;;;;;;;;;;;;;;18.44;61.47;97781.69;2088616;28;19924;-45
2022/04/24 00:11:00;;;;;;;;;;;;;;;18.43;61.46;97780.88;2087704;28;19924;-45
2022/04/24 00:12:01;;;;;;;;;;;;;;;18.42;61.48;97771.19;2090116;28;19964;-46
2022/04/24 00:13:03;;;;;;;;;;;;;;;18.43;61.34;97772.00;2088275;28;19920;-49
2022/04/24 00:14:10;;;;;;;;;;;;;;;18.43;61.46;97777.38;2089720;28;19934;-46
2022/04/24 00:15:11;;;;;;;;;;;;;;;18.42;61.35;97773.06;2088221;28;20446;-47
2022/04/24 00:16:12;;;;;;;;;;;;;;;18.43;61.45;97780.06;2088450;28;20290;-44
2022/04/24 00:17:15;;;;;;;;;;;;;;;18.41;61.47;97771.41;2088970;28;19930;-47
2022/04/24 00:18:17;;;;;;;;;;;;;;;18.39;61.60;97768.94;2084673;28;19928;-47
2022/04/24 00:19:19;;;;;;;;;;;;;;;18.37;61.62;97760.28;2086569;28;20548;-47
2022/04/24 00:20:20;;;;;;;;;;;;;;;18.40;61.32;97764.41;2088713;28;19928;-47
2022/04/24 00:21:21;;;;;;;;;;;;;;;18.38;61.60;97761.91;2086969;28;20072;-47
2022/04/24 00:22:22;;;;;;;;;;;;;;;18.39;61.59;97766.25;2089603;28;20000;-45
2022/04/24 00:23:23;;;;;;;;;;;;;;;18.38;61.54;97767.28;2088102;28;20003;-47
2022/04/24 00:24:25;;;;;;;;;;;;;;;18.38;61.39;97759.22;2081513;28;19966;-45
2022/04/24 00:25:25;;;;;;;;;;;;;;;18.38;61.52;97769.16;2088089;28;20631;-46
2022/04/24 00:26:27;;;;;;;;;;;;;;;18.37;61.61;97768.34;2087425;28;19928;-45
2022/04/24 00:27:27;;;;;;;;;;;;;;;18.38;61.37;97771.84;2076346;28;20055;-47
2022/04/24 00:28:29;;;;;;;;;;;;;;;18.37;61.56;97768.34;2086360;28;20758;-48
2022/04/24 00:29:31;;;;;;;;;;;;;;;18.37;61.58;97771.03;2087155;28;20547;-44
2022/04/24 00:30:32;;;;;;;;;;;;;;;18.38;61.41;97772.66;2086371;28;19924;-48
2022/04/24 00:31:34;;;;;;;;;;;;;;;18.37;61.61;97754.09;2087255;28;19987;-47
2022/04/24 00:32:34;;;;;;;;;;;;;;;18.36;61.56;97757.81;2087881;28;20048;-46
2022/04/24 00:33:36;;;;;;;;;;;;;;;18.35;61.37;97759.69;2081982;28;20531;-47
2022/04/24 00:34:37;;;;;;;;;;;;;;;18.35;61.29;97754.31;2088896;28;20621;-46
2022/04/24 00:35:38;;;;;;;;;;;;;;;18.35;61.59;97761.56;2088249;28;19924;-45
2022/04/24 00:36:39;;;;;;;;;;;;;;;18.36;61.62;97758.66;2084785;28;19925;-44
2022/04/24 00:37:41;;;;;;;;;;;;;;;18.33;61.43;97756.44;2085754;28;20031;-47
2022/04/24 00:38:41;;;;;;;;;;;;;;;18.34;61.45;97755.38;2087924;28;19924;-47
2022/04/24 00:39:43;;;;;;;;;;;;;;;18.33;61.44;97759.09;2087495;28;19931;-45
2022/04/24 00:40:45;;;;;;;;;;;;;;;18.32;61.33;97757.44;2089010;28;19925;-49
2022/04/24 00:41:47;;;;;;;;;;;;;;;18.32;61.45;97768.19;2087977;28;19928;-45
2022/04/24 00:42:48;;;;;;;;;;;;;;;18.33;61.38;97759.09;2087120;28;20876;-48
2022/04/24 00:43:53;;;;;;;;;;;;;;;18.30;61.46;97759.53;2087124;28;19924;-50
2022/04/24 00:44:55;;;;;;;;;;;;;;;18.30;61.47;97756.84;2085437;28;19973;-45
2022/04/24 00:46:01;;;;;;;;;;;;;;;18.30;61.60;97760.38;2082747;28;19977;-47
2022/04/24 00:47:03;;;;;;;;;;;;;;;18.30;61.64;97748.78;2087942;28;20032;-48
2022/04/24 00:48:05;;;;;;;;;;;;;;;18.30;61.46;97754.16;2085445;28;19924;-48
2022/04/24 00:49:05;;;;;;;;;;;;;;;18.30;61.39;97756.84;2082628;28;19928;-47
2022/04/24 00:50:07;;;;;;;;;;;;;;;18.28;61.44;97754.41;2087574;28;19928;-45
2022/04/24 00:51:08;;;;;;;;;;;;;;;18.29;61.38;97747.97;2084364;28;19959;-45
2022/04/24 00:52:10;;;;;;;;;;;;;;;18.28;61.42;97745.53;2087902;28;20564;-48
2022/04/24 00:53:10;;;;;;;;;;;;;;;18.27;61.63;97742.00;2086430;28;20027;-47
2022/04/24 00:54:13;;;;;;;;;;;;;;;18.28;61.60;97740.16;2086665;28;19950;-50
2022/04/24 00:55:13;;;;;;;;;;;;;;;18.28;61.52;97746.34;2088587;28;20030;-47
2022/04/24 00:56:16;;;;;;;;;;;;;;;18.28;61.53;97740.97;2087477;28;19928;-45
2022/04/24 00:57:17;;;;;;;;;;;;;;;18.28;61.44;97742.84;2086319;28;20267;-46
2022/04/24 00:58:19;;;;;;;;;;;;;;;18.27;61.37;97741.19;2084835;28;19929;-47
2022/04/24 00:59:20;;;;;;;;;;;;;;;18.25;61.54;97732.56;2087859;28;19925;-46
2022/04/24 01:00:24;;;;;;;;;;;;;;;18.26;61.35;97735.00;2088875;28;20000;-45
2022/04/24 01:01:24;;;;;;;;;;;;;;;18.26;61.77;97732.31;2085559;28;19932;-49
2022/04/24 01:02:26;;;;;;;;;;;;;;;18.25;61.37;97735.25;2088100;28;19931;-47
2022/04/24 01:03:27;;;;;;;;;;;;;;;18.25;61.35;97735.25;2084517;28;19928;-45
2022/04/24 01:04:28;;;;;;;;;;;;;;;18.24;61.49;97734.41;2087530;28;19924;-48
2022/04/24 01:05:29;;;;;;;;;;;;;;;18.24;61.65;97734.41;2082544;28;20024;-46
2022/04/24 01:06:33;;;;;;;;;;;;;;;18.24;61.47;97733.59;2085208;28;20358;-45
2022/04/24 01:07:33;;;;;;;;;;;;;;;18.24;61.33;97729.03;2088115;28;19921;-47
2022/04/24 01:08:35;;;;;;;;;;;;;;;18.24;61.48;97728.22;2086966;28;20922;-48
2022/04/24 01:09:35;;;;;;;;;;;;;;;18.25;61.43;97724.50;2086947;28;20570;-48
2022/04/24 01:10:37;;;;;;;;;;;;;;;18.25;61.52;97730.69;2086212;28;19935;-47
2022/04/24 01:11:38;;;;;;;;;;;;;;;18.23;61.39;97722.03;2081014;28;19934;-47
2022/04/24 01:12:40;;;;;;;;;;;;;;;18.23;61.39;97727.41;2086902;28;19924;-46
2022/04/24 01:13:40;;;;;;;;;;;;;;;18.22;61.57;97724.91;2087793;28;19925;-47
2022/04/24 01:14:42;;;;;;;;;;;;;;;18.21;61.52;97726.78;2088991;28;19934;-46
2022/04/24 01:15:44;;;;;;;;;;;;;;;18.23;61.47;97724.72;2084770;28;19975;-48
2022/04/24 01:16:46;;;;;;;;;;;;;;;18.23;61.39;97726.59;2086759;28;20015;-44
2022/04/24 01:17:47;;;;;;;;;;;;;;;18.22;61.43;97725.78;2082492;28;20884;-47
2022/04/24 01:18:48;;;;;;;;;;;;;;;18.23;61.40;97731.94;2088554;28;19924;-47
2022/04/24 01:19:50;;;;;;;;;;;;;;;18.21;61.47;97740.22;2087870;28;19921;-46
2022/04/24 01:20:52;;;;;;;;;;;;;;;18.20;61.60;97729.72;2088353;28;20406;-46
2022/04/24 01:21:54;;;;;;;;;;;;;;;18.21;61.39;97736.72;2086494;28;19928;-46
2022/04/24 01:22:56;;;;;;;;;;;;;;;18.20;61.46;97735.09;2088945;28;19928;-47
2022/04/24 01:23:56;;;;;;;;;;;;;;;18.20;61.32;97735.09;2087365;28;19929;-44
2022/04/24 01:24:58;;;;;;;;;;;;;;;18.18;61.59;97732.59;2086174;28;20602;-48
2022/04/24 01:25:59;;;;;;;;;;;;;;;18.20;61.42;97743.13;2083159;28;19984;-46
2022/04/24 01:27:01;;;;;;;;;;;;;;;18.18;61.28;97751.41;2086590;28;19978;-46
2022/04/24 01:28:05;;;;;;;;;;;;;;;18.18;61.52;97750.56;2086997;28;20015;-46
2022/04/24 01:29:07;;;;;;;;;;;;;;;18.18;61.36;97750.56;2085210;28;19932;-46
2022/04/24 01:30:08;;;;;;;;;;;;;;;18.17;61.36;97749.75;2081584;28;19926;-46
2022/04/24 01:31:10;;;;;;;;;;;;;;;18.17;61.47;97743.59;2084466;28;19924;-45
2022/04/24 01:32:10;;;;;;;;;;;;;;;18.17;61.55;97748.94;2086262;28;19959;-46
2022/04/24 01:33:12;;;;;;;;;;;;;;;18.18;61.37;97750.56;2087094;28;19924;-44
2022/04/24 01:34:12;;;;;;;;;;;;;;;18.15;61.58;97748.34;2086653;28;20026;-49
2022/04/24 01:35:15;;;;;;;;;;;;;;;18.15;61.31;97746.47;2086502;28;19921;-44
2022/04/24 01:36:17;;;;;;;;;;;;;;;18.17;61.33;97748.94;2087909;28;19931;-47
2022/04/24 01:37:18;;;;;;;;;;;;;;;18.16;61.36;97748.09;2086578;28;20413;-47
2022/04/24 01:38:19;;;;;;;;;;;;;;;18.15;61.50;97743.78;2085693;28;19929;-47
2022/04/24 01:39:20;;;;;;;;;;;;;;;18.16;61.21;97758.03;2086245;28;20599;-46
2022/04/24 01:40:21;;;;;;;;;;;;;;;18.14;61.25;97757.44;2087502;28;20074;-46
2022/04/24 01:41:22;;;;;;;;;;;;;;;18.14;61.49;97754.75;2087989;28;20454;-44
2022/04/24 01:42:24;;;;;;;;;;;;;;;18.14;61.39;97758.25;2085227;28;19931;-47
2022/04/24 01:43:26;;;;;;;;;;;;;;;18.12;61.51;97762.22;2086761;28;19928;-44
2022/04/24 01:44:26;;;;;;;;;;;;;;;18.12;61.48;97756.84;2085497;28;19924;-47
2022/04/24 01:45:28;;;;;;;;;;;;;;;18.13;61.49;97761.16;2087818;28;20432;-46
2022/04/24 01:46:28;;;;;;;;;;;;;;;18.14;61.41;97760.13;2082998;28;19925;-45
2022/04/24 01:47:30;;;;;;;;;;;;;;;18.11;61.32;97760.53;2084746;28;19920;-46
2022/04/24 01:48:32;;;;;;;;;;;;;;;18.11;61.41;97760.53;2084546;28;20336;-47
2022/04/24 01:49:33;;;;;;;;;;;;;;;18.11;61.40;97758.72;2086419;28;20604;-45
2022/04/24 01:50:34;;;;;;;;;;;;;;;18.09;61.32;97761.59;2087611;28;20031;-44
2022/04/24 01:51:37;;;;;;;;;;;;;;;18.09;61.47;97758.91;2086071;28;20494;-45
2022/04/24 01:52:37;;;;;;;;;;;;;;;18.09;61.34;97760.78;2079812;28;19928;-46
2022/04/24 01:53:39;;;;;;;;;;;;;;;18.09;61.56;97758.91;2086900;28;20453;-46
2022/04/24 01:54:39;;;;;;;;;;;;;;;18.10;61.29;97759.72;2085901;28;19924;-49
2022/04/24 01:55:41;;;;;;;;;;;;;;;18.09;61.36;97758.91;2086804;28;19928;-47
2022/04/24 01:56:41;;;;;;;;;;;;;;;18.08;61.37;97756.47;2083018;28;20035;-45
2022/04/24 01:57:43;;;;;;;;;;;;;;;18.07;61.53;97763.69;2086894;28;19957;-49
2022/04/24 01:58:44;;;;;;;;;;;;;;;18.06;61.38;97756.69;2088079;28;20522;-45
2022/04/24 01:59:45;;;;;;;;;;;;;;;18.08;61.47;97756.47;2086979;28;19999;-48
2022/04/24 02:00:46;;;;;;;;;;;;;;;18.07;61.35;97758.31;2085580;28;19932;-45
2022/04/24 02:01:47;;;;;;;;;;;;;;;18.08;61.45;97761.84;2081074;28;19924;-46
2022/04/24 02:02:48;;;;;;;;;;;;;;;18.06;61.39;97759.38;2087189;28;20355;-47
2022/04/24 02:03:49;;;;;;;;;;;;;;;18.07;61.49;97758.31;2084455;28;19952;-48
2022/04/24 02:04:50;;;;;;;;;;;;;;;18.06;61.21;97759.38;2087354;28;19924;-47
2022/04/24 02:05:52;;;;;;;;;;;;;;;18.06;61.45;97753.19;2086767;28;19982;-47
2022/04/24 02:06:54;;;;;;;;;;;;;;;18.07;61.21;97750.25;2080913;28;20386;-45
2022/04/24 02:07:55;;;;;;;;;;;;;;;18.06;61.49;97756.69;2087131;28;19920;-49
2022/04/24 02:08:56;;;;;;;;;;;;;;;18.06;61.55;97759.38;2086996;28;20019;-47
2022/04/24 02:09:57;;;;;;;;;;;;;;;18.05;61.31;97757.72;2085891;28;19925;-45
2022/04/24 02:10:58;;;;;;;;;;;;;;;18.04;61.37;97755.25;2085470;28;19924;-46
2022/04/24 02:11:59;;;;;;;;;;;;;;;18.05;61.46;97755.06;2086844;28;20437;-50
2022/04/24 02:13:00;;;;;;;;;;;;;;;18.05;61.35;97756.88;2087571;28;20326;-47
2022/04/24 02:14:01;;;;;;;;;;;;;;;18.05;61.30;97757.72;2085270;28;19927;-45
2022/04/24 02:15:02;;;;;;;;;;;;;;;18.05;61.20;97752.38;2087334;28;19924;-49
2022/04/24 02:16:04;;;;;;;;;;;;;;;18.05;61.42;97756.88;2084644;28;20482;-45
2022/04/24 02:17:05;;;;;;;;;;;;;;;18.05;61.33;97760.41;2083957;28;19944;-49
2022/04/24 02:18:06;;;;;;;;;;;;;;;18.04;61.58;97753.38;2085016;28;20289;-48
2022/04/24 02:19:07;;;;;;;;;;;;;;;18.03;61.34;97754.44;2084437;28;19927;-51
2022/04/24 02:20:09;;;;;;;;;;;;;;;18.04;61.49;97753.38;2086972;28;19982;-47
2022/04/24 02:21:10;;;;;;;;;;;;;;;18.04;61.49;97749.88;2086582;28;19927;-45
2022/04/24 02:22:13;;;;;;;;;;;;;;;18.02;61.51;97750.09;2085952;28;19931;-46
2022/04/24 02:23:14;;;;;;;;;;;;;;;18.02;61.54;97741.22;2084701;28;19931;-48
2022/04/24 02:24:15;;;;;;;;;;;;;;;18.03;61.33;97749.06;2084698;28;20877;-48
2022/04/24 02:25:17;;;;;;;;;;;;;;;18.01;61.38;97739.59;2088263;28;19924;-47
2022/04/24 02:26:18;;;;;;;;;;;;;;;18.02;61.44;97747.41;2085694;28;19951;-47
2022/04/24 02:27:19;;;;;;;;;;;;;;;18.01;61.55;97736.91;2080441;28;20278;-46
2022/04/24 02:28:21;;;;;;;;;;;;;;;18.01;61.53;97735.06;2082344;28;19926;-44
2022/04/24 02:29:21;;;;;;;;;;;;;;;18.00;61.50;97737.97;2083908;28;19931;-49
2022/04/24 02:30:23;;;;;;;;;;;;;;;18.00;61.51;97730.75;2082182;28;20269;-45
2022/04/24 02:31:24;;;;;;;;;;;;;;;18.00;61.51;97730.75;2082262;28;19935;-46
2022/04/24 02:32:25;;;;;;;;;;;;;;;18.00;61.48;97738.78;2086214;28;19925;-48
2022/04/24 02:33:26;;;;;;;;;;;;;;;18.00;61.52;97732.59;2086617;28;20011;-46
2022/04/24 02:34:27;;;;;;;;;;;;;;;18.00;61.44;97736.09;2086194;28;19928;-47
2022/04/24 02:35:28;;;;;;;;;;;;;;;18.00;61.54;97727.25;2084955;28;19931;-46
2022/04/24 02:36:30;;;;;;;;;;;;;;;18.01;61.53;97728.88;2083963;28;20018;-49
2022/04/24 02:37:32;;;;;;;;;;;;;;;17.98;61.32;97723.94;2085655;28;19925;-48
2022/04/24 02:38:34;;;;;;;;;;;;;;;17.98;61.34;97723.94;2084749;28;19928;-47
2022/04/24 02:39:35;;;;;;;;;;;;;;;17.98;61.25;97724.75;2082464;28;19929;-49
2022/04/24 02:40:37;;;;;;;;;;;;;;;17.98;61.54;97729.31;2085505;28;19982;-47
2022/04/24 02:41:38;;;;;;;;;;;;;;;17.97;61.44;97717.78;2084169;28;20037;-47
2022/04/24 02:42:40;;;;;;;;;;;;;;;17.96;61.54;97713.44;2085832;28;19982;-47
2022/04/24 02:43:40;;;;;;;;;;;;;;;17.96;61.54;97724.16;2086395;28;19925;-48
2022/04/24 02:44:42;;;;;;;;;;;;;;;17.97;61.56;97728.50;2084710;28;20545;-45
2022/04/24 02:45:43;;;;;;;;;;;;;;;17.95;61.41;97730.56;2082683;28;19936;-45
2022/04/24 02:46:45;;;;;;;;;;;;;;;17.95;61.63;97725.22;2084147;28;19964;-45
2022/04/24 02:47:45;;;;;;;;;;;;;;;17.96;61.35;97723.34;2086289;28;19935;-48
2022/04/24 02:48:47;;;;;;;;;;;;;;;17.94;61.26;97718.22;2086511;28;19957;-46
2022/04/24 02:49:48;;;;;;;;;;;;;;;17.94;61.54;97728.94;2086959;28;20535;-45
2022/04/24 02:50:49;;;;;;;;;;;;;;;17.95;61.61;97727.88;2082921;28;20042;-46
2022/04/24 02:51:50;;;;;;;;;;;;;;;17.94;61.37;97725.41;2085312;28;20615;-44
2022/04/24 02:52:53;;;;;;;;;;;;;;;17.93;61.43;97732.66;2085054;28;19936;-45
2022/04/24 02:53:54;;;;;;;;;;;;;;;17.94;61.63;97723.56;2085455;28;19928;-50
2022/04/24 02:54:55;;;;;;;;;;;;;;;17.94;61.37;97728.09;2082798;28;20047;-49
2022/04/24 02:55:56;;;;;;;;;;;;;;;17.92;61.35;97728.34;2083202;28;22518;-50
2022/04/24 02:56:58;;;;;;;;;;;;;;;17.92;61.56;97716.78;2085042;28;19921;-53
2022/04/24 02:58:00;;;;;;;;;;;;;;;17.91;61.44;97721.31;2086586;28;20588;-51
2022/04/24 02:59:02;;;;;;;;;;;;;;;17.91;61.47;97715.94;2085983;28;19928;-48
2022/04/24 03:00:03;;;;;;;;;;;;;;;17.91;61.65;97715.94;2086340;28;19927;-50
2022/04/24 03:01:05;;;;;;;;;;;;;;;17.92;61.38;97717.59;2083124;28;19943;-49
2022/04/24 03:02:05;;;;;;;;;;;;;;;17.93;61.45;97723.78;2086219;28;20023;-51
2022/04/24 03:03:08;;;;;;;;;;;;;;;17.91;61.38;97715.13;2087611;28;19927;-51
2022/04/24 03:04:08;;;;;;;;;;;;;;;17.92;61.44;97724.84;2084771;28;19932;-51
2022/04/24 03:05:10;;;;;;;;;;;;;;;17.91;61.47;97724.00;2076474;28;19924;-49
2022/04/24 03:06:12;;;;;;;;;;;;;;;17.90;61.49;97718.88;2084656;28;19924;-48
2022/04/24 03:07:13;;;;;;;;;;;;;;;17.89;61.53;97720.75;2084861;28;19920;-51
2022/04/24 03:08:17;;;;;;;;;;;;;;;17.91;61.58;97715.94;2087508;28;20587;-50
2022/04/24 03:09:17;;;;;;;;;;;;;;;17.90;61.44;97711.63;2085597;28;19928;-47
2022/04/24 03:10:19;;;;;;;;;;;;;;;17.90;61.49;97716.19;2088416;28;20392;-52
2022/04/24 03:11:19;;;;;;;;;;;;;;;17.90;61.64;97716.19;2079775;28;20377;-48
2022/04/24 03:12:21;;;;;;;;;;;;;;;17.88;61.34;97713.72;2087168;28;19932;-49
2022/04/24 03:13:21;;;;;;;;;;;;;;;17.89;61.38;97715.38;2083496;28;19932;-48
2022/04/24 03:14:23;;;;;;;;;;;;;;;17.89;61.49;97714.56;2089634;28;19921;-52
2022/04/24 03:15:23;;;;;;;;;;;;;;;17.90;61.58;97717.00;2081428;28;19932;-47
2022/04/24 03:16:25;;;;;;;;;;;;;;;17.87;61.54;97717.44;2090162;28;19929;-52
2022/04/24 03:17:26;;;;;;;;;;;;;;;17.86;61.50;97716.63;2085587;28;19935;-52
2022/04/24 03:18:28;;;;;;;;;;;;;;;17.88;61.42;97712.91;2088064;28;19927;-50
2022/04/24 03:19:29;;;;;;;;;;;;;;;17.89;61.34;97722.59;2089292;28;19940;-47
2022/04/24 03:20:31;;;;;;;;;;;;;;;17.86;61.49;97713.94;2091316;28;20583;-47
2022/04/24 03:21:32;;;;;;;;;;;;;;;17.87;61.48;97712.09;2089777;28;19924;-51
2022/04/24 03:22:33;;;;;;;;;;;;;;;17.86;61.47;97713.13;2088233;28;19924;-47
2022/04/24 03:23:36;;;;;;;;;;;;;;;17.85;61.60;97714.16;2088773;28;20054;-48
2022/04/24 03:24:37;;;;;;;;;;;;;;;17.85;61.55;97714.16;2090494;28;19928;-49
2022/04/24 03:25:38;;;;;;;;;;;;;;;17.84;61.54;97712.53;2086927;28;19933;-51
2022/04/24 03:26:39;;;;;;;;;;;;;;;17.85;61.52;97719.53;2087309;28;20714;-48
2022/04/24 03:27:40;;;;;;;;;;;;;;;17.88;61.71;97721.75;2088002;28;19931;-44
2022/04/24 03:28:42;;;;;;;;;;;;;;;17.87;61.44;97720.13;2090599;28;20354;-49
2022/04/24 03:29:44;;;;;;;;;;;;;;;17.86;61.68;97727.34;2087816;28;19928;-48
2022/04/24 03:30:44;;;;;;;;;;;;;;;17.86;61.37;97738.09;2086152;28;19971;-52
2022/04/24 03:31:46;;;;;;;;;;;;;;;17.85;61.44;97731.06;2083868;28;20474;-53
2022/04/24 03:32:46;;;;;;;;;;;;;;;17.84;61.45;97737.47;2088908;28;19924;-48
2022/04/24 03:33:48;;;;;;;;;;;;;;;17.84;61.45;97739.34;2090785;28;19928;-47
2022/04/24 03:34:48;;;;;;;;;;;;;;;17.83;61.57;97735.84;2090761;28;19925;-47
2022/04/24 03:35:50;;;;;;;;;;;;;;;17.84;61.36;97739.34;2086372;28;19928;-51
2022/04/24 03:36:51;;;;;;;;;;;;;;;17.84;61.36;97744.72;2088888;28;19921;-47
2022/04/24 03:37:52;;;;;;;;;;;;;;;17.84;61.40;97744.72;2088406;28;19925;-50
2022/04/24 03:38:55;;;;;;;;;;;;;;;17.84;61.58;97739.34;2089911;28;19936;-51
2022/04/24 03:39:55;;;;;;;;;;;;;;;17.82;61.41;97736.06;2090610;28;20629;-51
2022/04/24 03:40:57;;;;;;;;;;;;;;;17.82;61.45;97739.56;2090445;28;19924;-46
2022/04/24 03:41:58;;;;;;;;;;;;;;;17.80;61.48;97738.13;2089541;28;19920;-45
2022/04/24 03:42:59;;;;;;;;;;;;;;;17.82;61.77;97736.06;2090178;28;19931;-48
2022/04/24 03:44:00;;;;;;;;;;;;;;;17.81;61.58;97737.09;2090003;28;20319;-47
2022/04/24 03:45:02;;;;;;;;;;;;;;;17.81;61.49;97737.91;2076957;28;19928;-50
2022/04/24 03:46:03;;;;;;;;;;;;;;;17.81;61.61;97735.25;2084684;28;20024;-48
2022/04/24 03:47:06;;;;;;;;;;;;;;;17.80;61.51;97736.28;2081899;28;19925;-45
2022/04/24 03:48:06;;;;;;;;;;;;;;;17.81;61.52;97724.50;2089912;28;19920;-49
2022/04/24 03:49:08;;;;;;;;;;;;;;;17.80;61.65;97732.75;2089383;28;19928;-45
2022/04/24 03:50:09;;;;;;;;;;;;;;;17.81;61.54;97726.38;2090857;28;20373;-47
2022/04/24 03:51:11;;;;;;;;;;;;;;;17.81;61.47;97718.34;2083369;28;19932;-48
2022/04/24 03:52:11;;;;;;;;;;;;;;;17.80;61.39;97722.88;2086638;28;19924;-49
2022/04/24 03:53:13;;;;;;;;;;;;;;;17.78;61.50;97722.28;2088556;28;19924;-45
2022/04/24 03:54:15;;;;;;;;;;;;;;;17.80;61.50;97722.88;2086486;28;20046;-50
2022/04/24 03:55:16;;;;;;;;;;;;;;;17.79;61.44;97723.91;2087126;28;19924;-47
2022/04/24 03:56:17;;;;;;;;;;;;;;;17.78;61.70;97718.75;2088558;28;20613;-47
2022/04/24 03:57:18;;;;;;;;;;;;;;;17.78;61.61;97713.38;2091053;28;19924;-46
2022/04/24 03:58:19;;;;;;;;;;;;;;;17.78;61.46;97713.38;2090069;28;20418;-47
2022/04/24 03:59:21;;;;;;;;;;;;;;;17.78;61.40;97714.22;2089983;28;19925;-47
2022/04/24 04:00:21;;;;;;;;;;;;;;;17.78;61.36;97716.91;2087939;28;19924;-47
2022/04/24 04:01:23;;;;;;;;;;;;;;;17.76;61.61;97710.09;2088201;28;19924;-44
2022/04/24 04:02:23;;;;;;;;;;;;;;;17.76;61.40;97712.78;2084900;28;19924;-48
2022/04/24 04:03:26;;;;;;;;;;;;;;;17.75;61.58;97714.63;2084449;28;19928;-45
2022/04/24 04:04:27;;;;;;;;;;;;;;;17.74;61.57;97715.66;2089977;28;20026;-46
2022/04/24 04:05:28;;;;;;;;;;;;;;;17.74;61.72;97717.53;2090627;28;20407;-47
2022/04/24 04:06:29;;;;;;;;;;;;;;;17.74;61.40;97709.47;2090719;28;19921;-46
2022/04/24 04:07:30;;;;;;;;;;;;;;;17.74;61.37;97715.66;2089159;28;19960;-47
2022/04/24 04:08:31;;;;;;;;;;;;;;;17.75;61.52;97711.16;2088066;28;19928;-46
2022/04/24 04:09:34;;;;;;;;;;;;;;;17.78;61.47;97718.75;2089210;28;19967;-45
2022/04/24 04:10:35;;;;;;;;;;;;;;;17.81;61.39;97713.78;2089480;28;19920;-49
2022/04/24 04:11:37;;;;;;;;;;;;;;;17.84;61.46;97717.88;2090233;28;19925;-44
2022/04/24 04:12:37;;;;;;;;;;;;;;;17.88;61.10;97712.91;2087039;28;19931;-49
2022/04/24 04:13:39;;;;;;;;;;;;;;;17.92;61.12;97714.91;2090182;28;19935;-45
2022/04/24 04:14:39;;;;;;;;;;;;;;;17.95;60.87;97709.13;2091018;28;20414;-49
2022/04/24 04:15:41;;;;;;;;;;;;;;;18.01;60.87;97707.41;2086453;28;19931;-46
2022/04/24 04:16:42;;;;;;;;;;;;;;;18.04;60.81;97706.97;2088068;28;19928;-45
2022/04/24 04:17:44;;;;;;;;;;;;;;;18.08;60.69;97708.16;2089945;28;20314;-46
2022/04/24 04:18:44;;;;;;;;;;;;;;;18.12;60.57;97703.97;2089298;28;19986;-46
2022/04/24 04:19:46;;;;;;;;;;;;;;;18.14;60.51;97704.59;2083519;28;19924;-45
2022/04/24 04:20:46;;;;;;;;;;;;;;;18.17;60.44;97701.47;2086055;28;19935;-47
2022/04/24 04:21:48;;;;;;;;;;;;;;;18.19;60.49;97695.84;2087985;28;19920;-44
2022/04/24 04:22:51;;;;;;;;;;;;;;;18.20;60.30;97692.13;2088856;28;19964;-46
2022/04/24 04:23:52;;;;;;;;;;;;;;;18.21;60.37;97699.13;2089157;28;20409;-45
2022/04/24 04:24:54;;;;;;;;;;;;;;;18.23;60.37;97686.31;2091053;28;19920;-47
2022/04/24 04:25:56;;;;;;;;;;;;;;;18.23;60.16;97686.31;2087120;28;19925;-45
2022/04/24 04:26:56;;;;;;;;;;;;;;;18.23;60.22;97689.81;2087850;28;19993;-46
2022/04/24 04:27:58;;;;;;;;;;;;;;;18.27;60.29;97693.69;2089697;28;19942;-47
2022/04/24 04:28:58;;;;;;;;;;;;;;;18.28;60.46;97694.53;2086789;28;19925;-46
2022/04/24 04:30:00;;;;;;;;;;;;;;;18.28;60.38;97702.59;2088470;28;20603;-49
2022/04/24 04:31:01;;;;;;;;;;;;;;;18.29;60.44;97701.53;2086922;28;20334;-46
2022/04/24 04:32:03;;;;;;;;;;;;;;;18.28;60.57;97694.53;2086307;28;19934;-47
2022/04/24 04:33:03;;;;;;;;;;;;;;;18.29;60.45;97706.88;2087188;28;19999;-46
2022/04/24 04:34:05;;;;;;;;;;;;;;;18.29;60.44;97693.47;2090033;28;20438;-48
2022/04/24 04:35:07;;;;;;;;;;;;;;;18.28;60.49;97691.84;2086139;28;19924;-46
2022/04/24 04:36:09;;;;;;;;;;;;;;;18.30;60.70;97697.78;2089806;28;19925;-48
2022/04/24 04:37:11;;;;;;;;;;;;;;;18.33;60.52;97699.19;2087472;28;19921;-48
2022/04/24 04:38:12;;;;;;;;;;;;;;;18.32;60.55;97698.38;2083572;28;19925;-44
2022/04/24 04:39:13;;;;;;;;;;;;;;;18.33;60.60;97701.88;2085326;28;20539;-45
2022/04/24 04:40:18;;;;;;;;;;;;;;;18.33;60.52;97697.38;2086683;28;20015;-47
2022/04/24 04:41:19;;;;;;;;;;;;;;;18.33;60.60;97697.38;2086419;28;20398;-49
2022/04/24 04:42:20;;;;;;;;;;;;;;;18.35;60.47;97697.13;2089709;28;19931;-46
2022/04/24 04:43:21;;;;;;;;;;;;;;;18.35;60.42;97697.94;2089384;28;20385;-47
2022/04/24 04:44:22;;;;;;;;;;;;;;;18.35;60.44;97692.56;2087317;28;20371;-45
2022/04/24 04:45:25;;;;;;;;;;;;;;;18.36;60.50;97698.75;2086994;28;19936;-46
2022/04/24 04:46:25;;;;;;;;;;;;;;;18.35;60.66;97703.31;2084868;28;20370;-48
2022/04/24 04:47:27;;;;;;;;;;;;;;;18.36;60.54;97699.59;2087525;28;19924;-46
2022/04/24 04:48:28;;;;;;;;;;;;;;;18.36;60.46;97699.59;2086651;28;20466;-45
2022/04/24 04:49:29;;;;;;;;;;;;;;;18.37;60.57;97701.22;2088038;28;19989;-48
2022/04/24 04:50:30;;;;;;;;;;;;;;;18.37;60.48;97701.22;2088092;28;19986;-45
2022/04/24 04:51:31;;;;;;;;;;;;;;;18.38;60.47;97696.66;2084358;28;19935;-47
2022/04/24 04:52:32;;;;;;;;;;;;;;;18.39;60.50;97693.78;2087180;28;20876;-49
2022/04/24 04:53:34;;;;;;;;;;;;;;;18.39;60.63;97693.78;2086309;28;19925;-47
2022/04/24 04:54:35;;;;;;;;;;;;;;;18.41;60.42;97694.34;2087832;28;19924;-47
2022/04/24 04:55:38;;;;;;;;;;;;;;;18.42;60.43;97693.31;2087307;28;20551;-49
2022/04/24 04:56:39;;;;;;;;;;;;;;;18.44;60.40;97691.25;2088163;28;19925;-47
2022/04/24 04:57:40;;;;;;;;;;;;;;;18.44;60.51;97690.41;2085766;28;20029;-48
2022/04/24 04:58:41;;;;;;;;;;;;;;;18.43;60.26;97694.94;2086446;28;19920;-44
2022/04/24 04:59:42;;;;;;;;;;;;;;;18.44;60.19;97691.25;2084925;28;19935;-49
2022/04/24 05:00:43;;;;;;;;;;;;;;;18.47;60.34;97698.00;2083274;28;20038;-46
2022/04/24 05:01:44;;;;;;;;;;;;;;;18.48;60.21;97697.78;2081294;28;21159;-47
2022/04/24 05:02:45;;;;;;;;;;;;;;;18.49;60.42;97688.66;2088330;28;19924;-48
2022/04/24 05:03:46;;;;;;;;;;;;;;;18.50;60.26;97690.34;2088104;28;19931;-46
2022/04/24 05:04:47;;;;;;;;;;;;;;;18.51;60.46;97691.16;2087496;28;20375;-44
2022/04/24 05:05:48;;;;;;;;;;;;;;;18.51;60.21;97683.91;2084247;28;19928;-46
2022/04/24 05:06:49;;;;;;;;;;;;;;;18.52;60.33;97685.53;2084544;28;20301;-46
2022/04/24 05:07:51;;;;;;;;;;;;;;;18.54;60.40;97685.31;2088302;28;19924;-45
2022/04/24 05:08:52;;;;;;;;;;;;;;;18.53;60.25;97683.69;2087916;28;19924;-47
2022/04/24 05:09:53;;;;;;;;;;;;;;;18.56;60.16;97688.59;2088120;28;19936;-46
2022/04/24 05:10:55;;;;;;;;;;;;;;;18.56;60.14;97677.88;2083756;28;20536;-46
2022/04/24 05:11:56;;;;;;;;;;;;;;;18.55;60.17;97684.25;2086809;28;19924;-46
2022/04/24 05:12:58;;;;;;;;;;;;;;;18.56;60.13;97687.78;2088163;28;20015;-49
2022/04/24 05:13:59;;;;;;;;;;;;;;;18.56;60.29;97687.78;2088059;28;20571;-45
2022/04/24 05:15:01;;;;;;;;;;;;;;;18.57;60.26;97681.38;2084773;28;20742;-45
2022/04/24 05:16:02;;;;;;;;;;;;;;;18.57;60.21;97687.56;2083660;28;20043;-46
2022/04/24 05:17:03;;;;;;;;;;;;;;;18.58;60.34;97693.75;2085732;28;19920;-46
2022/04/24 05:18:05;;;;;;;;;;;;;;;18.58;60.40;97693.75;2088779;28;20264;-47
2022/04/24 05:19:06;;;;;;;;;;;;;;;18.58;60.43;97699.91;2088440;28;20011;-45
2022/04/24 05:20:09;;;;;;;;;;;;;;;18.60;60.16;97697.03;2077910;28;19999;-45